EW7038 Weather Reports


Display with metric or nautical units.
time (UTC)temp
F
wind
direction
speed
MPH
gust
MPH
rain 1hr
in
rain 24hr
in
rain mn
in
humidity
%
barometer
mb
20220818072806 79 165 1.0 2.0 0.00 0.00 0.00 39 1010.7
20220818071806 79 130 2.0 2.0 0.00 0.00 0.00 39 1011.0
20220818065806 81 160 2.0 3.0 0.00 0.00 0.00 40 1010.8
20220818065306 81 343 1.0 3.0 0.00 0.00 0.00 38 1010.8
20220818063806 81 195 1.0 3.0 0.00 0.00 0.00 36 1010.7
20220818063306 82 162 2.0 6.0 0.00 0.00 0.00 37 1010.8
20220818062306 82 301 3.0 7.0 0.00 0.00 0.00 37 1010.8
20220818061806 81 272 4.0 9.0 0.00 0.00 0.00 38 1010.8
20220818060806 80 196 2.0 3.0 0.00 0.00 0.00 39 1010.7
20220818055306 79 121 3.0 7.0 0.00 0.00 0.00 42 1010.2
20220818054306 80 307 3.0 5.0 0.00 0.00 0.00 39 1010.0
20220818052805 80 164 2.0 2.0 0.00 0.00 0.00 39 1010.4
20220818051305 81 168 1.0 2.0 0.00 0.00 0.00 38 1010.5
20220818050806 80 169 2.0 3.0 0.00 0.00 0.00 39 1010.5
20220818050306 81 160 2.0 3.0 0.00 0.00 0.00 40 1010.7
20220818045806 81 170 2.0 2.0 0.00 0.00 0.00 39 1010.7
20220818044806 81 179 1.0 2.0 0.00 0.00 0.00 38 1010.8
20220818043306 81 160 2.0 3.0 0.00 0.00 0.00 40 1010.8
20220818042806 81 156 2.0 3.0 0.00 0.00 0.00 40 1010.7
20220818042306 82 157 2.0 3.0 0.00 0.00 0.00 39 1010.6
20220818041306 82 153 2.0 3.0 0.00 0.00 0.00 38 1010.7
20220818040805 83 162 2.0 3.0 0.00 0.00 0.00 38 1010.6
20220818040305 83 136 2.0 3.0 0.00 0.00 0.00 37 1010.5
20220818034806 83 174 2.0 2.0 0.00 0.00 0.00 37 1010.5
20220818034306 84 161 2.0 2.0 0.00 0.00 0.00 36 1010.4
20220818033306 82 145 1.0 2.0 0.00 0.00 0.00 39 1010.4
20220818031306 83 155 2.0 5.0 0.00 0.00 0.00 36 1010.1
20220818030806 83 148 3.0 5.0 0.00 0.00 0.00 36 1010.1
20220818030306 83 149 2.0 3.0 0.00 0.00 0.00 36 1009.9
20220818025306 84 151 2.0 2.0 0.00 0.00 0.00 34 1009.9
20220818024806 84 151 2.0 3.0 0.00 0.00 0.00 34 1009.8
20220818023806 86 147 2.0 3.0 0.00 0.00 0.00 30 1009.7
20220818022806 86 154 2.0 2.0 0.00 0.00 0.00 32 1009.6
20220818022306 87 147 2.0 2.0 0.00 0.00 0.00 28 1009.5
20220818020306 86 154 2.0 6.0 0.00 0.00 0.00 33 1009.5
20220818014806 88 161 2.0 3.0 0.00 0.00 0.00 30 1009.4
20220818014306 89 159 3.0 3.0 0.00 0.00 0.00 28 1009.3
20220818013806 90 159 3.0 3.0 0.00 0.00 0.00 28 1009.2
20220818012306 90 242 1.0 2.0 0.00 0.00 0.00 29 1009.3
20220818011806 90 148 2.0 3.0 0.00 0.00 0.00 31 1009.4
20220818010806 92 163 3.0 3.0 0.00 0.00 0.00 24 1009.3
20220818005307 92 150 2.0 2.0 0.00 0.00 0.00 29 1010.1
20220818004807 94 153 1.0 2.0 0.00 0.00 0.00 35 1010.1
20220818004307 95 165 1.0 2.0 0.00 0.00 0.00 22 1010.2
20220818003807 94 141 1.0 1.0 0.00 0.00 0.00 27 1010.2
20220818002807 96 172 1.0 1.0 0.00 0.00 0.00 28 1010.3
20220818002307 95 234 1.0 2.0 0.00 0.00 0.00 22 1010.4
20220818001807 95 161 2.0 3.0 0.00 0.00 0.00 25 1010.4
20220818001307 94 166 1.0 2.0 0.00 0.00 0.00 26 1010.4
20220818000807 95 148 1.0 2.0 0.00 0.00 0.00 24 1010.3
20220818000307 96 153 2.0 2.0 0.00 0.00 0.00 25 1010.3
20220817235807 97 124 1.0 2.0 0.00 0.00 0.00 20 1010.3
20220817232808 101 341 1.0 3.0 0.00 0.00 0.00 17 1010.5
20220817232307 101 93 1.0 2.0 0.00 0.00 0.00 15 1010.5
20220817231307 100 105 1.0 2.0 0.00 0.00 0.00 15 1010.6
20220817230807 101 25 1.0 3.0 0.00 0.00 0.00 17 1010.7
20220817225307 101 113 1.0 3.0 0.00 0.00 0.00 17 1010.8
20220817224308 102 35 2.0 6.0 0.00 0.00 0.00 15 1010.8
20220817222307 100 81 2.0 5.0 0.00 0.00 0.00 18 1011.0
20220817221807 99 87 1.0 3.0 0.00 0.00 0.00 18 1011.1
20220817221307 99 100 2.0 8.0 0.00 0.00 0.00 19 1011.1
20220817215308 99 91 2.0 5.0 0.00 0.00 0.00 19 1011.5
20220817214807 99 50 3.0 7.0 0.00 0.00 0.00 19 1011.4
20220817214307 99 13 2.0 6.0 0.00 0.00 0.00 20 1011.4
20220817213808 99 19 2.0 5.0 0.00 0.00 0.00 19 1011.5
20220817212807 98 31 3.0 6.0 0.00 0.00 0.00 20 1011.6
20220817211307 98 0 2.0 3.0 0.00 0.00 0.00 20 1011.8
20220817210307 97 50 3.0 7.0 0.00 0.00 0.00 19 1011.9
20220817203808 96 38 2.0 5.0 0.00 0.00 0.00 22 1012.1
20220817202807 93 27 2.0 6.0 0.00 0.00 0.00 23 1012.3
20220817201307 93 21 1.0 3.0 0.00 0.00 0.00 25 1012.5
20220817200307 92 69 3.0 6.0 0.00 0.00 0.00 25 1012.6
20220817195307 91 61 2.0 6.0 0.00 0.00 0.00 25 1012.7
20220817193807 89 6 1.0 3.0 0.00 0.00 0.00 27 1013.1
20220817192807 89 19 2.0 3.0 0.00 0.00 0.00 30 1013.2
20220817191807 89 10 2.0 3.0 0.00 0.00 0.00 30 1013.3
20220817190807 88 49 2.0 6.0 0.00 0.00 0.00 30 1013.4
20220817185807 87 48 1.0 3.0 0.00 0.00 0.00 33 1013.5
20220817184807 84 25 2.0 3.0 0.00 0.00 0.00 36 1013.7
20220817181807 79 45 2.0 3.0 0.00 0.00 0.00 45 1014.1
20220817181307 80 39 2.0 3.0 0.00 0.00 0.00 44 1014.2
20220817180808 80 30 2.0 3.0 0.00 0.00 0.00 43 1014.3
20220817175307 78 56 2.0 5.0 0.00 0.00 0.00 48 1014.4
20220817173807 80 7 2.0 5.0 0.00 0.00 0.00 40 1014.5
20220817173307 79 76 2.0 3.0 0.00 0.00 0.00 40 1014.5
20220817172807 79 110 2.0 3.0 0.00 0.00 0.00 41 1014.6
20220817172307 78 116 2.0 6.0 0.00 0.00 0.00 41 1014.6
20220817171307 78 74 3.0 5.0 0.00 0.00 0.00 41 1014.7
20220817165807 77 53 2.0 6.0 0.00 0.00 0.00 43 1014.8
20220817165308 77 75 1.0 2.0 0.00 0.00 0.00 44 1014.9
20220817164807 76 36 2.0 5.0 0.00 0.00 0.00 44 1014.9
20220817164307 76 84 1.0 2.0 0.00 0.00 0.00 44 1015.0
20220817163807 76 99 1.0 2.0 0.00 0.00 0.00 44 1015.0
20220817162808 75 71 2.0 5.0 0.00 0.00 0.00 43 1015.1
20220817162309 75 77 2.0 3.0 0.00 0.00 0.00 46 1015.1
20220817161807 74 94 2.0 3.0 0.00 0.00 0.00 49 1015.1
20220817161307 73 63 1.0 3.0 0.00 0.00 0.00 50 1015.1
20220817154807 71 70 3.0 6.0 0.00 0.00 0.00 53 1015.3
20220817153808 71 94 3.0 5.0 0.00 0.00 0.00 53 1015.4
20220817153307 70 99 1.0 2.0 0.00 0.00 0.00 55 1015.4
20220817152808 70 68 1.0 2.0 0.00 0.00 0.00 55 1015.4
20220817151807 69 101 1.0 2.0 0.00 0.00 0.00 55 1015.4
20220817151307 68 96 2.0 5.0 0.00 0.00 0.00 56 1015.5
20220817150807 68 107 1.0 2.0 0.00 0.00 0.00 58 1015.6
20220817145807 66 127 1.0 2.0 0.00 0.00 0.00 60 1015.6
20220817142808 64 141 2.0 3.0 0.00 0.00 0.00 66 1015.4
20220817141808 63 167 2.0 3.0 0.00 0.00 0.00 67 1015.3
20220817141307 63 145 3.0 3.0 0.00 0.00 0.00 68 1015.3
20220817140808 63 147 2.0 3.0 0.00 0.00 0.00 68 1015.2
20220817140307 62 142 2.0 3.0 0.00 0.00 0.00 69 1015.3
20220817135307 62 148 2.0 3.0 0.00 0.00 0.00 70 1015.2
20220817132308 61 151 3.0 5.0 0.00 0.00 0.00 73 1015.1
20220817131807 61 156 2.0 5.0 0.00 0.00 0.00 74 1015.1
20220817131307 61 162 2.0 3.0 0.00 0.00 0.00 75 1015.1
20220817130807 61 154 2.0 3.0 0.00 0.00 0.00 75 1015.1
20220817125807 62 151 2.0 3.0 0.00 0.00 0.00 74 1015.1
20220817095305 80 262 6.0 15.0 0.00 0.00 0.00 41 1011.7
20220817094804 80 262 6.0 15.0 0.00 0.00 0.00 41 1011.7
20220817094304 80 262 6.0 15.0 0.00 0.00 0.00 41 1011.7
20220817093304 80 262 6.0 15.0 0.00 0.00 0.00 41 1011.7
20220817092305 80 262 6.0 15.0 0.00 0.00 0.00 41 1011.7
20220817091804 80 262 6.0 15.0 0.00 0.00 0.00 41 1011.7
20220817091304 80 262 6.0 15.0 0.00 0.00 0.00 41 1011.7
20220817090304 80 262 6.0 15.0 0.00 0.00 0.00 41 1011.7
20220817085804 80 262 6.0 15.0 0.00 0.00 0.00 41 1011.7
20220817085305 80 262 6.0 15.0 0.00 0.00 0.00 41 1011.7
20220817084803 80 262 6.0 15.0 0.00 0.00 0.00 41 1011.7
20220817084303 80 262 6.0 15.0 0.00 0.00 0.00 41 1011.7
20220817082804 80 262 6.0 15.0 0.00 0.00 0.00 41 1011.7
20220817082305 80 262 6.0 15.0 0.00 0.00 0.00 41 1011.7
20220817081304 80 262 6.0 15.0 0.00 0.00 0.00 41 1011.7
20220817080804 80 262 6.0 15.0 0.00 0.00 0.00 41 1011.7
20220817075305 80 262 6.0 15.0 0.00 0.00 0.00 41 1011.7
20220817074803 80 262 6.0 15.0 0.00 0.00 0.00 41 1011.7
20220817074304 80 262 6.0 15.0 0.00 0.00 0.00 41 1011.7